Time;durP1;ratioP1;P1;durP2;ratioP2;P2;SDS_P1;SDS_P2;PMS_P1;PMS_P2;Temp;Humidity;BMP_temperature;BMP_pressure;BME280_temperature;BME280_humidity;BME280_pressure;Samples;Min_cycle;Max_cycle;Signal;HPM_P1;HPM_P2
2022/12/29 00:00:28;;;;;;;5.70;2.97;;;;;;;8.53;100.00;98237.00;5053249;28;20193;-80
2022/12/29 00:02:59;;;;;;;5.33;2.80;;;;;;;8.62;100.00;98230.22;4975368;28;20224;-79
2022/12/29 00:05:28;;;;;;;4.50;3.00;;;;;;;8.56;100.00;98223.56;5011629;28;20197;-81
2022/12/29 00:08:01;;;;;;;4.77;3.20;;;;;;;8.65;100.00;98222.91;5002395;28;20210;-80
2022/12/29 00:10:30;;;;;;;4.83;3.00;;;;;;;8.82;100.00;98241.03;4998919;28;20226;-80
2022/12/29 00:15:46;;;;;;;4.33;2.70;;;;;;;9.08;100.00;98223.31;5011268;28;20281;-80
2022/12/29 00:18:19;;;;;;;7.60;4.60;;;;;;;9.22;100.00;98232.03;5007305;28;20312;-80
2022/12/29 00:45:42;;;;;;;7.60;5.73;;;;;;;9.84;100.00;98218.53;5069565;28;20265;-80
2022/12/29 00:48:10;;;;;;;3.03;2.40;;;;;;;9.78;100.00;98225.16;5066145;28;20226;-80
2022/12/29 00:50:40;;;;;;;4.77;3.00;;;;;;;9.79;100.00;98199.56;5064494;28;20589;-80
2022/12/29 00:53:10;;;;;;;5.17;3.83;;;;;;;9.86;100.00;98206.91;5069320;28;20197;-80
2022/12/29 00:55:39;;;;;;;4.67;3.57;;;;;;;9.86;100.00;98233.38;5080116;28;20192;-80
2022/12/29 00:58:07;;;;;;;5.53;2.90;;;;;;;9.84;100.00;98218.53;5068717;28;20204;-80
2022/12/29 01:00:39;;;;;;;3.40;2.70;;;;;;;9.82;100.00;98201.97;5062492;28;20242;-80
2022/12/29 01:03:08;;;;;;;3.87;2.77;;;;;;;9.95;100.00;98192.16;5029325;28;20198;-80
2022/12/29 01:05:37;;;;;;;6.17;3.10;;;;;;;9.97;100.00;98199.00;5022822;28;20417;-80
2022/12/29 01:08:08;;;;;;;4.87;2.80;;;;;;;9.95;100.00;98194.78;5027734;28;20192;-80
2022/12/29 01:10:35;;;;;;;3.80;2.80;;;;;;;9.84;100.00;98187.66;5026739;28;20560;-80
2022/12/29 01:13:03;;;;;;;3.40;2.67;;;;;;;9.93;100.00;98176.38;5021568;28;20255;-80
2022/12/29 01:15:32;;;;;;;7.27;3.37;;;;;;;9.90;100.00;98173.13;5024498;28;20193;-80
2022/12/29 01:18:00;;;;;;;3.07;2.37;;;;;;;9.78;100.00;98171.44;5024995;28;20209;-80
2022/12/29 01:20:29;;;;;;;3.40;2.50;;;;;;;9.91;100.00;98180.94;5028379;28;20759;-80
2022/12/29 01:22:57;;;;;;;6.07;2.73;;;;;;;9.98;100.00;98183.97;5062832;28;20204;-80
2022/12/29 01:25:28;;;;;;;5.57;2.50;;;;;;;9.82;100.00;98180.81;5066964;28;20359;-80
2022/12/29 01:27:59;;;;;;;4.70;2.50;;;;;;;9.83;100.00;98175.41;5069516;28;20188;-80
2022/12/29 01:30:27;;;;;;;5.57;2.47;;;;;;;9.89;100.00;98182.88;5008734;28;20646;-80
2022/12/29 01:32:56;;;;;;;3.57;2.50;;;;;;;9.92;100.00;98174.69;5005190;28;20190;-80
2022/12/29 01:35:25;;;;;;;4.93;2.40;;;;;;;9.98;100.00;98200.69;5012032;28;20202;-81
2022/12/29 01:37:53;;;;;;;3.27;2.07;;;;;;;10.18;100.00;98183.25;5004577;28;20200;-80
2022/12/29 01:40:21;;;;;;;3.77;2.10;;;;;;;10.25;100.00;98178.38;4970666;28;20254;-80
2022/12/29 01:42:55;;;;;;;3.23;1.90;;;;;;;10.22;100.00;98189.16;4973605;28;20268;-79
2022/12/29 01:45:23;;;;;;;4.70;2.23;;;;;;;10.13;100.00;98177.47;4914888;29;20241;-80
2022/12/29 01:47:55;;;;;;;3.27;1.80;;;;;;;10.23;100.00;98204.09;4883057;29;20206;-81
2022/12/29 01:50:34;;;;;;;3.30;1.73;;;;;;;10.37;100.00;98184.50;4917522;29;20194;-80
2022/12/29 01:53:09;;;;;;;5.00;1.90;;;;;;;10.34;100.00;98190.88;4916452;29;20205;-80
2022/12/29 01:55:43;;;;;;;3.33;1.80;;;;;;;10.38;100.00;98192.31;4912425;29;20254;-80
2022/12/29 01:58:15;;;;;;;2.00;1.70;;;;;;;10.46;100.00;98186.41;4933856;28;20199;-80
2022/12/29 02:00:45;;;;;;;2.00;1.70;;;;;;;10.47;100.00;98188.09;4970400;28;20222;-80
2022/12/29 02:03:14;;;;;;;2.87;1.80;;;;;;;10.47;100.00;98194.22;4921124;29;20688;-80
2022/12/29 02:05:49;;;;;;;2.27;1.60;;;;;;;10.58;100.00;98212.75;4956491;28;20199;-80
2022/12/29 02:08:18;;;;;;;2.37;1.50;;;;;;;10.63;100.00;98204.47;4990973;28;20202;-80
2022/12/29 02:10:48;;;;;;;1.90;1.40;;;;;;;10.63;100.00;98201.81;4989229;28;20659;-80
2022/12/29 02:13:19;;;;;;;2.63;1.40;;;;;;;10.68;100.00;98193.50;4991518;28;20223;-80
2022/12/29 02:16:02;;;;;;;1.93;1.20;;;;;;;10.67;100.00;98195.31;4985322;28;20203;-79
2022/12/29 02:18:45;;;;;;;1.50;1.20;;;;;;;10.94;100.00;98192.25;4960736;28;20217;-81
2022/12/29 02:21:46;;;;;;;2.10;1.20;;;;;;;10.81;100.00;98199.50;5022719;28;20212;-80
2022/12/29 02:24:49;;;;;;;2.30;1.60;;;;;;;10.66;100.00;98195.44;5012388;28;20217;-79
2022/12/29 02:27:42;;;;;;;1.40;1.10;;;;;;;10.76;100.00;98176.03;5013266;28;20268;-80
2022/12/29 02:33:52;;;;;;;1.20;1.00;;;;;;;10.76;100.00;98168.06;5063722;27;20549;-79
2022/12/29 02:36:29;;;;;;;1.73;1.00;;;;;;;10.64;100.00;98170.88;5044996;28;20205;-79
2022/12/29 02:39:05;;;;;;;1.67;1.10;;;;;;;10.75;100.00;98177.00;5046231;28;20640;-79
2022/12/29 02:41:43;;;;;;;1.60;0.93;;;;;;;10.68;100.00;98177.59;5046491;28;20250;-79
2022/12/29 02:44:18;;;;;;;1.10;0.90;;;;;;;10.79;100.00;98170.47;5040020;28;20197;-80
2022/12/29 02:46:54;;;;;;;2.17;1.20;;;;;;;10.82;100.00;98172.88;5049305;28;20185;-80
2022/12/29 02:49:34;;;;;;;2.83;1.27;;;;;;;10.83;100.00;98169.28;5041514;28;20213;-80
2022/12/29 02:52:06;;;;;;;1.70;1.20;;;;;;;10.73;100.00;98170.13;5038627;28;20695;-79
2022/12/29 02:54:42;;;;;;;1.60;1.20;;;;;;;10.72;100.00;98164.00;5044263;28;20644;-80
2022/12/29 02:57:16;;;;;;;2.37;1.20;;;;;;;10.70;100.00;98155.31;5044717;28;20203;-80
2022/12/29 02:59:49;;;;;;;2.57;1.30;;;;;;;10.69;100.00;98166.03;5040337;28;20260;-80
2022/12/29 03:02:39;;;;;;;1.80;1.03;;;;;;;10.69;100.00;98145.69;4996877;28;20206;-80
2022/12/29 03:05:44;;;;;;;1.20;1.10;;;;;;;10.73;100.00;98143.66;5005690;28;20300;-80
2022/12/29 03:08:24;;;;;;;1.70;1.20;;;;;;;10.69;100.00;98153.63;5014429;28;20210;-79
2022/12/29 03:11:00;;;;;;;2.57;1.40;;;;;;;10.71;100.00;98145.56;5012960;28;20240;-80
2022/12/29 03:16:24;;;;;;;1.43;1.20;;;;;;;10.69;100.00;98144.84;5020189;28;20637;-80
2022/12/29 03:19:01;;;;;;;1.20;1.10;;;;;;;10.75;100.00;98165.56;5002885;28;20209;-80
2022/12/29 03:24:28;;;;;;;2.13;1.17;;;;;;;10.79;100.00;98154.56;5002728;28;20210;-80
2022/12/29 03:27:00;;;;;;;2.07;1.53;;;;;;;10.78;100.00;98150.25;5020387;28;20197;-80
2022/12/29 03:29:32;;;;;;;1.50;1.10;;;;;;;10.70;100.00;98149.19;5043316;28;20200;-80
2022/12/29 03:32:04;;;;;;;2.97;1.43;;;;;;;10.68;100.00;98143.19;5051584;27;20324;-80
2022/12/29 03:34:34;;;;;;;2.60;1.20;;;;;;;10.58;100.00;98141.25;5025977;28;20196;-80
2022/12/29 03:37:07;;;;;;;2.87;1.30;;;;;;;10.55;100.00;98138.03;5040368;28;20201;-80
2022/12/29 03:39:38;;;;;;;1.93;1.47;;;;;;;10.52;100.00;98140.94;5042130;28;20193;-80
2022/12/29 03:42:10;;;;;;;5.33;1.97;;;;;;;10.41;100.00;98135.63;5043439;28;20189;-80
2022/12/29 03:44:42;;;;;;;3.73;1.20;;;;;;;10.53;100.00;98148.75;5028296;28;20190;-80
2022/12/29 03:47:12;;;;;;;2.00;1.40;;;;;;;10.51;100.00;98140.06;5032101;28;20186;-80
2022/12/29 03:49:42;;;;;;;2.77;1.40;;;;;;;10.54;100.00;98144.28;5026047;28;20661;-79
2022/12/29 03:52:10;;;;;;;2.37;1.40;;;;;;;10.58;100.00;98143.91;5029067;28;20290;-80
2022/12/29 03:54:40;;;;;;;4.10;1.67;;;;;;;10.51;100.00;98140.06;5026623;28;20227;-80
2022/12/29 03:57:10;;;;;;;1.90;1.20;;;;;;;10.60;100.00;98136.69;5029876;28;20239;-80
2022/12/29 03:59:40;;;;;;;4.00;1.47;;;;;;;10.49;100.00;98136.72;5130234;27;20677;-80
2022/12/29 04:02:09;;;;;;;2.03;1.27;;;;;;;10.61;100.00;98132.22;5131825;27;20194;-80
2022/12/29 04:04:37;;;;;;;2.97;1.30;;;;;;;10.55;100.00;98136.22;5129634;27;20285;-80
2022/12/29 04:07:08;;;;;;;1.43;1.20;;;;;;;10.53;100.00;98135.50;5134323;27;20209;-80
2022/12/29 04:09:43;;;;;;;1.47;1.33;;;;;;;10.52;100.00;98133.84;5125690;27;20213;-80
2022/12/29 04:12:11;;;;;;;1.87;1.30;;;;;;;10.46;100.00;98133.47;5131114;27;20229;-80
2022/12/29 04:14:40;;;;;;;2.40;1.37;;;;;;;10.46;100.00;98133.47;5129590;27;20198;-80
2022/12/29 04:17:08;;;;;;;2.23;1.60;;;;;;;10.47;100.00;98121.91;5109621;27;20209;-81
2022/12/29 04:19:37;;;;;;;1.33;1.10;;;;;;;10.44;100.00;98136.25;5031240;28;20238;-80
2022/12/29 04:22:05;;;;;;;2.07;0.90;;;;;;;10.46;100.00;98130.81;5112918;28;20198;-80
2022/12/29 04:24:34;;;;;;;1.47;1.07;;;;;;;10.39;100.00;98133.13;5114470;28;20198;-80
2022/12/29 04:27:05;;;;;;;1.10;1.00;;;;;;;10.44;100.00;98136.25;5092225;28;20226;-80
2022/12/29 04:29:35;;;;;;;1.83;1.33;;;;;;;10.47;100.00;98140.44;5112782;28;20203;-80
2022/12/29 04:32:04;;;;;;;1.80;1.20;;;;;;;10.47;100.00;98143.94;5029135;28;20262;-79
2022/12/29 04:34:33;;;;;;;1.40;1.20;;;;;;;10.49;100.00;98119.97;5024012;28;20248;-80
2022/12/29 04:37:02;;;;;;;2.53;1.43;;;;;;;10.46;100.00;98126.38;5031990;28;20190;-80
2022/12/29 04:39:31;;;;;;;0.97;0.80;;;;;;;10.50;100.00;98129.59;5027765;28;20200;-80
2022/12/29 04:42:00;;;;;;;2.27;1.20;;;;;;;10.45;100.00;98131.78;5067149;28;20224;-80
2022/12/29 04:44:30;;;;;;;1.43;1.03;;;;;;;10.44;100.00;98143.34;5067723;28;20192;-80
2022/12/29 04:46:58;;;;;;;1.30;1.10;;;;;;;10.52;100.00;98141.78;5069294;28;20204;-80
2022/12/29 04:49:27;;;;;;;1.20;0.90;;;;;;;10.51;100.00;98145.34;5056713;28;20206;-80
2022/12/29 04:51:55;;;;;;;1.97;1.00;;;;;;;10.50;100.00;98145.50;5027435;28;20786;-80
2022/12/29 04:54:23;;;;;;;1.27;1.10;;;;;;;10.49;100.00;98144.66;5024850;28;20218;-80
2022/12/29 04:56:53;;;;;;;3.37;1.57;;;;;;;10.48;100.00;98139.47;5027735;28;20214;-80
2022/12/29 04:59:24;;;;;;;1.60;1.30;;;;;;;10.49;100.00;98134.06;5032020;28;20190;-79
2022/12/29 05:01:56;;;;;;;2.60;1.30;;;;;;;10.47;100.00;98128.06;5025362;28;20262;-79
2022/12/29 05:04:25;;;;;;;2.80;1.50;;;;;;;10.54;100.00;98126.59;5029804;28;20668;-79
2022/12/29 05:06:54;;;;;;;2.27;1.37;;;;;;;10.59;100.00;98118.28;5005518;28;20194;-79
2022/12/29 05:09:23;;;;;;;3.93;1.60;;;;;;;10.66;100.00;98129.22;5002206;28;20203;-79
2022/12/29 05:11:52;;;;;;;2.37;1.30;;;;;;;10.63;100.00;98111.78;5004812;28;20191;-79
2022/12/29 05:14:20;;;;;;;2.33;1.53;;;;;;;10.67;100.00;98136.19;5002107;28;20248;-80
2022/12/29 05:16:49;;;;;;;2.87;1.60;;;;;;;10.51;100.00;98126.00;5004892;28;20699;-80
2022/12/29 05:19:19;;;;;;;3.87;1.43;;;;;;;10.45;100.00;98123.84;5028803;28;20196;-80
2022/12/29 05:21:49;;;;;;;2.03;1.53;;;;;;;10.43;100.00;98128.44;5027798;28;20190;-79
2022/12/29 05:24:17;;;;;;;3.33;1.70;;;;;;;10.40;100.00;98123.38;5019450;28;20226;-79
2022/12/29 05:26:45;;;;;;;3.40;1.90;;;;;;;10.39;100.00;98132.28;4962908;28;20207;-79
2022/12/29 05:29:14;;;;;;;2.80;1.83;;;;;;;10.33;100.00;98123.03;4969676;28;20294;-79
2022/12/29 05:31:45;;;;;;;4.07;1.80;;;;;;;10.27;100.00;98132.28;4969769;28;20231;-80
2022/12/29 05:34:13;;;;;;;4.17;1.60;;;;;;;10.41;100.00;98128.53;4968686;28;20224;-79
2022/12/29 05:36:43;;;;;;;2.33;1.80;;;;;;;10.35;100.00;98130.84;4906936;28;20213;-80
2022/12/29 05:39:14;;;;;;;1.80;1.60;;;;;;;10.29;100.00;98133.00;4943464;28;20200;-80
2022/12/29 05:41:43;;;;;;;3.93;1.73;;;;;;;10.34;100.00;98130.00;4950612;28;20204;-79
2022/12/29 05:44:12;;;;;;;4.23;1.80;;;;;;;10.42;100.00;98121.44;4948128;28;20667;-79
2022/12/29 05:46:42;;;;;;;2.40;1.97;;;;;;;10.38;100.00;98130.59;4946307;28;20201;-79
2022/12/29 05:49:11;;;;;;;4.00;1.87;;;;;;;10.37;100.00;98121.81;4943418;28;20199;-80
2022/12/29 05:51:41;;;;;;;3.60;2.17;;;;;;;10.32;100.00;98114.22;4941785;28;20204;-80
2022/12/29 05:54:12;;;;;;;4.57;1.90;;;;;;;10.40;100.00;98120.72;4996519;28;20223;-80
2022/12/29 05:56:41;;;;;;;3.13;2.00;;;;;;;10.43;100.00;98116.03;4946405;28;20200;-80
2022/12/29 05:59:10;;;;;;;2.93;2.13;;;;;;;10.45;100.00;98102.69;4950163;28;20204;-79
2022/12/29 06:01:38;;;;;;;4.17;1.90;;;;;;;10.56;100.00;98107.94;4996865;28;20212;-79
2022/12/29 06:04:10;;;;;;;2.40;1.60;;;;;;;10.46;100.00;98112.28;5035481;28;20198;-78
2022/12/29 06:06:41;;;;;;;2.73;1.90;;;;;;;10.47;100.00;98101.59;5029412;28;20201;-79
2022/12/29 06:09:13;;;;;;;2.43;1.63;;;;;;;10.53;100.00;98097.59;5030355;28;20196;-79
2022/12/29 06:11:41;;;;;;;6.23;2.10;;;;;;;10.45;100.00;98108.81;5042470;27;20644;-79
2022/12/29 06:14:09;;;;;;;4.30;2.10;;;;;;;10.46;100.00;98099.06;5025104;28;20222;-79
2022/12/29 06:16:39;;;;;;;3.33;1.80;;;;;;;10.50;100.00;98116.38;5025178;28;20653;-79
2022/12/29 06:19:09;;;;;;;3.33;1.80;;;;;;;10.54;100.00;98118.66;5026016;28;20190;-79
2022/12/29 06:21:39;;;;;;;3.87;1.50;;;;;;;10.55;100.00;98093.88;5025975;28;20652;-79
2022/12/29 06:24:08;;;;;;;3.00;1.60;;;;;;;10.54;100.00;98113.38;5024032;28;20225;-79
2022/12/29 06:26:39;;;;;;;4.37;1.50;;;;;;;10.47;100.00;98093.63;5006830;28;20202;-79
2022/12/29 06:29:09;;;;;;;1.60;1.20;;;;;;;10.43;100.00;98110.75;4997117;28;20202;-79
2022/12/29 06:31:39;;;;;;;2.23;1.50;;;;;;;10.46;100.00;98099.91;5003365;28;20230;-79
2022/12/29 06:34:07;;;;;;;2.63;1.47;;;;;;;10.43;100.00;98128.44;4997571;28;20290;-79
2022/12/29 06:36:38;;;;;;;2.07;1.47;;;;;;;10.49;100.00;98102.28;5050021;28;20196;-79
2022/12/29 06:39:07;;;;;;;1.70;1.50;;;;;;;10.44;100.00;98103.66;5042393;28;20200;-79
2022/12/29 06:41:35;;;;;;;3.93;1.30;;;;;;;10.52;100.00;98110.00;5045030;28;20196;-79
2022/12/29 06:44:05;;;;;;;1.87;1.47;;;;;;;10.49;100.00;98117.34;5032409;28;20200;-79
2022/12/29 06:46:34;;;;;;;1.40;1.30;;;;;;;10.58;100.00;98100.72;5064868;28;20204;-79
2022/12/29 06:49:03;;;;;;;2.40;1.70;;;;;;;10.58;100.00;98108.66;5059918;28;20204;-79
2022/12/29 06:51:34;;;;;;;2.87;1.60;;;;;;;10.52;100.00;98109.16;5066963;28;20246;-79
2022/12/29 06:54:03;;;;;;;2.07;1.50;;;;;;;10.53;100.00;98101.09;5048236;28;20221;-79
2022/12/29 06:56:31;;;;;;;2.60;1.50;;;;;;;10.42;100.00;98111.72;5040711;28;20201;-80
2022/12/29 06:59:00;;;;;;;2.20;1.50;;;;;;;10.51;100.00;98118.03;5044242;28;20202;-80
2022/12/29 07:01:34;;;;;;;3.03;1.83;;;;;;;10.48;100.00;98099.78;5021005;28;20224;-79
2022/12/29 07:04:06;;;;;;;3.00;1.50;;;;;;;10.57;100.00;98113.09;5006482;28;20233;-79
2022/12/29 07:06:36;;;;;;;2.77;1.73;;;;;;;10.50;100.00;98101.31;5013197;28;20203;-79
2022/12/29 07:09:05;;;;;;;3.20;1.80;;;;;;;10.35;100.00;98094.63;5005649;28;20229;-80
2022/12/29 07:11:34;;;;;;;2.60;1.97;;;;;;;10.37;100.00;98097.16;5020605;28;20659;-80
2022/12/29 07:14:03;;;;;;;3.23;2.50;;;;;;;10.24;100.00;98099.94;5013676;28;20218;-79
2022/12/29 07:16:34;;;;;;;4.07;2.10;;;;;;;10.20;100.00;98093.16;5007964;28;20587;-79
2022/12/29 07:19:05;;;;;;;3.43;2.47;;;;;;;10.19;100.00;98105.56;5010015;28;20199;-79
2022/12/29 07:21:34;;;;;;;3.73;1.77;;;;;;;10.19;100.00;98096.78;5012041;28;20244;-79
2022/12/29 07:24:03;;;;;;;4.13;1.90;;;;;;;10.19;100.00;98102.06;4991292;28;20195;-79
2022/12/29 07:26:31;;;;;;;4.77;2.60;;;;;;;10.15;100.00;98100.66;5053020;28;20197;-79
2022/12/29 07:29:04;;;;;;;3.00;1.87;;;;;;;10.17;100.00;98107.50;5049297;28;20189;-79
2022/12/29 07:31:35;;;;;;;3.53;2.20;;;;;;;10.24;100.00;98115.81;5048090;28;20204;-79
2022/12/29 07:34:04;;;;;;;3.93;1.57;;;;;;;10.24;100.00;98111.38;5050917;28;20217;-79
2022/12/29 07:36:35;;;;;;;2.40;1.80;;;;;;;10.23;100.00;98122.94;5047423;28;20196;-79
2022/12/29 07:39:04;;;;;;;5.70;1.60;;;;;;;10.19;100.00;98121.44;5049892;28;20789;-80
2022/12/29 07:41:33;;;;;;;5.17;2.00;;;;;;;10.29;100.00;98118.94;5049368;28;20189;-80
2022/12/29 07:44:01;;;;;;;3.90;1.80;;;;;;;10.29;100.00;98114.47;5046487;28;20200;-79
2022/12/29 07:46:31;;;;;;;4.40;1.97;;;;;;;10.23;100.00;98106.19;5064459;28;20185;-79
2022/12/29 07:49:20;;;;;;;3.13;1.80;;;;;;;10.31;100.00;98154.03;5072900;28;20288;-79
2022/12/29 07:51:49;;;;;;;3.50;1.70;;;;;;;10.39;100.00;98127.81;5021923;28;20239;-79
2022/12/29 07:54:18;;;;;;;3.10;1.67;;;;;;;10.43;100.00;98125.78;5027576;27;20223;-79
2022/12/29 07:56:46;;;;;;;2.43;1.70;;;;;;;10.44;100.00;98115.06;5008834;28;20206;-80
2022/12/29 07:59:15;;;;;;;2.43;1.60;;;;;;;10.46;100.00;98117.59;5013213;28;20218;-79
2022/12/29 08:01:47;;;;;;;3.30;1.50;;;;;;;10.47;100.00;98122.75;5012496;28;20213;-79
2022/12/29 08:04:16;;;;;;;2.13;1.70;;;;;;;10.56;100.00;98115.88;5011526;28;20191;-79
2022/12/29 08:06:47;;;;;;;5.07;1.90;;;;;;;10.63;100.00;98101.19;5015480;28;20200;-80
2022/12/29 08:09:15;;;;;;;2.53;1.57;;;;;;;10.58;100.00;98117.44;5017512;28;20191;-79
2022/12/29 08:11:50;;;;;;;3.83;2.00;;;;;;;10.57;100.00;98099.88;5011430;28;20254;-79
2022/12/29 08:14:18;;;;;;;4.03;2.13;;;;;;;10.58;100.00;98114.78;5010370;28;20210;-79
2022/12/29 08:16:47;;;;;;;5.10;2.10;;;;;;;10.65;100.00;98127.53;5023274;28;20239;-80
2022/12/29 08:19:15;;;;;;;4.37;1.70;;;;;;;10.68;100.00;98112.25;5012998;28;20190;-80
2022/12/29 08:21:44;;;;;;;2.90;1.90;;;;;;;10.66;100.00;98113.34;5014140;28;20198;-79
2022/12/29 08:24:16;;;;;;;2.60;1.90;;;;;;;10.77;100.00;98114.13;5006223;28;20206;-79
2022/12/29 08:26:44;;;;;;;4.17;1.80;;;;;;;10.81;100.00;98120.88;5009669;28;20239;-79
2022/12/29 08:29:13;;;;;;;6.77;2.13;;;;;;;10.85;100.00;98122.31;5015794;28;20212;-79
2022/12/29 08:31:42;;;;;;;3.03;2.00;;;;;;;10.91;100.00;98115.69;5008704;28;20210;-79
2022/12/29 08:34:11;;;;;;;4.10;2.00;;;;;;;10.77;100.00;98147.72;5014453;28;20247;-79
2022/12/29 08:36:39;;;;;;;2.87;1.90;;;;;;;10.84;100.00;98143.63;5009967;28;20249;-79
2022/12/29 08:39:09;;;;;;;3.17;1.87;;;;;;;10.88;100.00;98137.94;5008912;28;20206;-79
2022/12/29 08:41:39;;;;;;;4.80;2.10;;;;;;;10.87;100.00;98159.25;5007562;28;20254;-79
2022/12/29 08:44:07;;;;;;;3.27;2.00;;;;;;;10.82;100.00;98164.09;4966365;28;20192;-79
2022/12/29 08:46:37;;;;;;;5.60;2.00;;;;;;;10.66;100.00;98177.72;5019319;28;20225;-79
2022/12/29 08:49:05;;;;;;;4.37;2.27;;;;;;;10.60;100.00;98200.22;4969135;28;20235;-79
2022/12/29 08:51:37;;;;;;;4.83;2.20;;;;;;;10.54;100.00;98213.97;4976432;28;20218;-79
2022/12/29 08:54:08;;;;;;;4.93;2.30;;;;;;;10.63;100.00;98208.91;4977791;28;20276;-80
2022/12/29 08:56:40;;;;;;;5.43;2.40;;;;;;;10.40;100.00;98221.31;4978138;28;20220;-80
2022/12/29 08:59:08;;;;;;;3.20;2.40;;;;;;;10.38;100.00;98221.44;4967159;28;20199;-81
2022/12/29 09:01:41;;;;;;;2.90;2.03;;;;;;;10.48;100.00;98210.97;4980687;28;20236;-80
2022/12/29 09:04:10;;;;;;;5.47;2.20;;;;;;;10.44;100.00;98220.13;5108071;28;20282;-80
2022/12/29 09:06:43;;;;;;;4.00;1.97;;;;;;;10.49;100.00;98199.41;5107735;28;20202;-80
2022/12/29 09:09:13;;;;;;;3.50;1.67;;;;;;;10.49;100.00;98210.00;5050701;28;20201;-80
2022/12/29 09:11:43;;;;;;;2.97;1.80;;;;;;;10.53;100.00;98216.75;5044713;28;20197;-80
2022/12/29 09:14:12;;;;;;;1.93;1.27;;;;;;;10.56;100.00;98219.97;5049279;28;20207;-79
2022/12/29 09:19:27;;;;;;;3.97;1.30;;;;;;;10.59;100.00;98221.53;5049485;28;20247;-81
2022/12/29 09:21:55;;;;;;;2.33;1.13;;;;;;;10.56;100.00;98241.16;5053837;28;20195;-81
2022/12/29 09:24:24;;;;;;;3.20;1.30;;;;;;;10.54;100.00;98245.75;5060665;28;20201;-80
2022/12/29 09:26:54;;;;;;;3.17;1.23;;;;;;;10.67;100.00;98248.25;5049643;28;20198;-80
2022/12/29 09:29:25;;;;;;;3.53;2.00;;;;;;;10.60;100.00;98239.09;4967328;28;20207;-80
2022/12/29 09:31:54;;;;;;;4.60;2.93;;;;;;;10.60;100.00;98239.94;4964173;28;20238;-80
2022/12/29 09:34:24;;;;;;;2.53;1.47;;;;;;;10.64;100.00;98239.72;4962811;28;20192;-80
2022/12/29 09:36:52;;;;;;;4.50;3.50;;;;;;;10.67;100.00;98245.63;4968043;28;20228;-80
2022/12/29 09:39:21;;;;;;;4.87;3.03;;;;;;;10.69;100.00;98240.19;4967599;28;20192;-80
2022/12/29 09:42:01;;;;;;;19.07;13.83;;;;;;;10.65;100.00;98242.25;4966796;28;20211;-79
2022/12/29 09:44:47;;;;;;;51.13;29.57;;;;;;;10.54;100.00;98242.25;4966180;28;20233;-80
2022/12/29 09:47:18;;;;;;;128.33;72.03;;;;;;;10.53;100.00;98256.47;4983811;28;20665;-80
2022/12/29 09:49:51;;;;;;;12.73;7.60;;;;;;;10.73;100.00;98247.78;5006046;28;20653;-78
2022/12/29 09:52:29;;;;;;;8.90;6.50;;;;;;;10.67;100.00;98250.06;5008177;28;20198;-80
2022/12/29 09:55:02;;;;;;;11.03;7.63;;;;;;;10.62;100.00;98263.69;5025372;27;20202;-81
2022/12/29 09:57:48;;;;;;;3.13;2.40;;;;;;;10.72;100.00;98253.22;5019405;27;20190;-80
2022/12/29 10:00:24;;;;;;;5.73;3.47;;;;;;;10.63;100.00;98249.47;5007787;28;20255;-80
2022/12/29 10:02:57;;;;;;;4.13;2.50;;;;;;;10.63;100.00;98251.28;5020943;28;20190;-80
2022/12/29 10:05:36;;;;;;;4.83;2.43;;;;;;;10.75;100.00;98253.81;5006755;28;20194;-80
2022/12/29 10:08:22;;;;;;;4.90;3.97;;;;;;;10.46;100.00;98261.38;5010273;28;20204;-81
2022/12/29 10:10:57;;;;;;;4.50;2.37;;;;;;;10.40;100.00;98261.00;4992770;28;20210;-80
2022/12/29 10:13:34;;;;;;;4.80;2.23;;;;;;;10.35;100.00;98257.88;5073056;28;20203;-80
2022/12/29 10:16:11;;;;;;;2.80;2.00;;;;;;;10.39;100.00;98259.31;5069844;28;20220;-80
2022/12/29 10:19:17;;;;;;;4.37;2.40;;;;;;;10.43;100.00;98264.28;5072397;28;20188;-80
2022/12/29 10:22:00;;;;;;;2.97;2.40;;;;;;;10.51;100.00;98266.31;5062599;28;20686;-80
2022/12/29 10:24:32;;;;;;;5.20;4.37;;;;;;;10.44;100.00;98284.50;5064388;28;20198;-80
2022/12/29 10:27:04;;;;;;;5.27;3.67;;;;;;;10.43;100.00;98280.16;5025689;28;20251;-81
2022/12/29 10:29:38;;;;;;;3.83;3.40;;;;;;;10.53;100.00;98270.53;5023332;28;20194;-80
2022/12/29 10:32:26;;;;;;;5.77;2.40;;;;;;;10.43;100.00;98258.16;4976491;28;20235;-80
2022/12/29 10:35:00;;;;;;;3.07;2.00;;;;;;;10.55;100.00;98278.34;4930498;29;20193;-80
2022/12/29 10:37:35;;;;;;;5.50;2.50;;;;;;;10.50;100.00;98272.56;4930599;28;20271;-80
2022/12/29 10:40:16;;;;;;;3.80;2.00;;;;;;;10.46;100.00;98269.31;4928634;28;20255;-80
2022/12/29 10:42:52;;;;;;;3.30;2.20;;;;;;;10.46;100.00;98263.19;4931256;29;20616;-80
2022/12/29 10:45:22;;;;;;;3.50;2.17;;;;;;;10.52;100.00;98268.03;4929338;28;20698;-81
2022/12/29 10:47:59;;;;;;;4.77;2.43;;;;;;;10.43;100.00;98266.09;4932748;28;20331;-80
2022/12/29 10:50:30;;;;;;;4.07;2.20;;;;;;;10.47;100.00;98263.06;4928638;28;20205;-80
2022/12/29 10:53:05;;;;;;;4.87;2.00;;;;;;;10.56;100.00;98250.91;4982393;28;20198;-80
2022/12/29 10:55:40;;;;;;;3.10;1.57;;;;;;;10.61;100.00;98251.38;5006493;28;20225;-79
2022/12/29 10:58:14;;;;;;;4.83;2.30;;;;;;;10.62;100.00;98257.56;5095046;28;20199;-80
2022/12/29 11:00:53;;;;;;;1.87;1.47;;;;;;;10.62;100.00;98260.19;5091394;28;20195;-80
2022/12/29 11:03:49;;;;;;;5.83;5.30;;;;;;;10.64;100.00;98245.88;5088072;28;20198;-79
2022/12/29 11:06:25;;;;;;;1.80;1.30;;;;;;;10.62;100.00;98255.75;5088866;28;20249;-80
2022/12/29 11:08:57;;;;;;;2.93;1.23;;;;;;;10.65;100.00;98266.09;5085315;28;20183;-80
2022/12/29 11:11:33;;;;;;;3.20;1.20;;;;;;;10.52;100.00;98263.56;5091793;28;20202;-80
2022/12/29 11:14:12;;;;;;;3.30;1.20;;;;;;;10.42;100.00;98275.84;5089580;28;20199;-80
2022/12/29 11:16:41;;;;;;;2.17;1.30;;;;;;;10.35;100.00;98266.66;5035517;28;20252;-80
2022/12/29 11:19:23;;;;;;;1.83;1.17;;;;;;;10.26;100.00;98278.81;5016698;28;20244;-81
2022/12/29 11:21:53;;;;;;;2.03;1.20;;;;;;;10.12;100.00;98264.91;5009554;28;20202;-81
2022/12/29 11:24:25;;;;;;;2.63;0.93;;;;;;;10.13;100.00;98272.72;5011815;28;20202;-80
2022/12/29 11:26:57;;;;;;;2.60;1.20;;;;;;;9.98;100.00;98284.47;5014025;28;20206;-81
2022/12/29 11:29:30;;;;;;;1.87;0.90;;;;;;;10.01;100.00;98294.81;5012650;28;20199;-81
2022/12/29 11:32:00;;;;;;;1.40;0.70;;;;;;;10.02;100.00;98294.69;5021380;27;20687;-81
2022/12/29 11:34:33;;;;;;;1.37;0.80;;;;;;;10.06;100.00;98290.03;5009581;28;20371;-81
2022/12/29 11:37:07;;;;;;;2.50;1.40;;;;;;;9.94;100.00;98290.94;5021750;27;20226;-80
2022/12/29 11:39:41;;;;;;;3.23;2.93;;;;;;;9.96;100.00;98313.69;5014738;28;20202;-80
2022/12/29 11:42:16;;;;;;;4.43;2.00;;;;;;;10.00;100.00;98312.50;5029171;27;20204;-80
2022/12/29 11:44:47;;;;;;;3.20;2.37;;;;;;;9.94;100.00;98320.03;5016707;28;20247;-81
2022/12/29 11:47:24;;;;;;;3.47;1.17;;;;;;;9.96;100.00;98316.34;5012555;28;20229;-81
2022/12/29 11:49:57;;;;;;;4.40;0.83;;;;;;;10.05;100.00;98312.16;5013732;28;20285;-81
2022/12/29 11:52:32;;;;;;;1.37;0.80;;;;;;;10.01;100.00;98311.53;5013096;28;20191;-80
2022/12/29 11:55:03;;;;;;;1.33;1.20;;;;;;;10.08;100.00;98317.22;5075102;28;20190;-81
2022/12/29 11:57:34;;;;;;;2.50;2.03;;;;;;;10.12;100.00;98316.00;5019724;28;20226;-81
2022/12/29 12:00:04;;;;;;;2.50;2.30;;;;;;;10.24;100.00;98304.56;5023987;28;20206;-81
2022/12/29 12:02:58;;;;;;;6.80;4.20;;;;;;;10.35;100.00;98302.88;5016318;28;20195;-80
2022/12/29 12:05:34;;;;;;;4.90;2.20;;;;;;;10.40;100.00;98296.25;5015765;28;20225;-80
2022/12/29 12:08:13;;;;;;;2.77;1.57;;;;;;;10.48;100.00;98299.16;5010919;28;20259;-80
2022/12/29 12:10:56;;;;;;;4.37;1.50;;;;;;;10.53;100.00;98304.97;5014558;28;20285;-80
2022/12/29 12:13:31;;;;;;;4.70;4.20;;;;;;;10.57;100.00;98293.16;5028630;27;20207;-80
2022/12/29 12:16:07;;;;;;;5.40;3.57;;;;;;;10.56;100.00;98278.22;5014343;28;20195;-80
2022/12/29 12:18:41;;;;;;;3.73;1.50;;;;;;;10.66;100.00;98283.66;5011754;28;20218;-80
2022/12/29 12:21:19;;;;;;;1.73;0.80;;;;;;;10.68;100.00;98279.06;5008112;28;20200;-80
2022/12/29 12:24:20;;;;;;;3.93;1.10;;;;;;;10.74;100.00;98270.66;5010091;28;20214;-81
2022/12/29 12:26:59;;;;;;;2.30;1.80;;;;;;;10.76;100.00;98278.47;5006860;28;20206;-81
2022/12/29 12:29:36;;;;;;;3.03;1.00;;;;;;;10.84;100.00;98268.13;5015199;28;20202;-80